Time;durP1;ratioP1;P1;durP2;ratioP2;P2;SDS_P1;SDS_P2;PMS_P1;PMS_P2;Temp;Humidity;BMP_temperature;BMP_pressure;BME280_temperature;BME280_humidity;BME280_pressure;Samples;Min_cycle;Max_cycle;Signal;HPM_P1;HPM_P2
2022/04/05 00:02:14;;;;;;;4.88;3.40;;;;;;;17.85;40.38;99642.19;4964712;28;20027;-88
2022/04/05 00:04:39;;;;;;;5.72;3.92;;;;;;;17.85;40.71;99636.91;4948099;29;20023;-88
2022/04/05 00:07:05;;;;;;;4.88;3.13;;;;;;;17.82;40.71;99639.72;4948626;29;20027;-89
2022/04/05 00:09:31;;;;;;;5.25;3.67;;;;;;;17.82;40.65;99637.06;4948197;29;20034;-89
2022/04/05 00:11:57;;;;;;;4.70;3.08;;;;;;;17.84;40.61;99640.50;4946941;29;20058;-88
2022/04/05 00:14:22;;;;;;;5.85;3.42;;;;;;;17.82;40.65;99642.34;4942149;29;20052;-88
2022/04/05 00:16:48;;;;;;;5.57;3.58;;;;;;;17.83;40.42;99644.06;4940268;29;20027;-87
2022/04/05 00:19:14;;;;;;;6.65;3.58;;;;;;;17.81;40.49;99645.88;4940772;29;20031;-88
2022/04/05 00:21:40;;;;;;;5.43;3.63;;;;;;;17.81;40.49;99640.63;4940480;29;20046;-88
2022/04/05 00:24:06;;;;;;;5.20;3.40;;;;;;;17.79;40.39;99645.97;4940471;29;20038;-88
2022/04/05 00:26:32;;;;;;;5.95;3.42;;;;;;;17.77;40.53;99637.25;4957126;29;20031;-88
2022/04/05 00:28:57;;;;;;;5.35;3.78;;;;;;;17.77;40.32;99642.53;4940203;29;20124;-88
2022/04/05 00:31:23;;;;;;;5.25;3.15;;;;;;;17.76;40.67;99638.19;4940188;29;20046;-87
2022/04/05 00:33:48;;;;;;;8.73;3.85;;;;;;;17.76;40.59;99637.31;4958427;29;20047;-88
2022/04/05 00:36:14;;;;;;;4.53;3.10;;;;;;;17.75;40.57;99635.59;4940605;29;20027;-87
2022/04/05 00:38:39;;;;;;;5.78;3.90;;;;;;;17.74;40.82;99639.19;4957864;29;20056;-87
2022/04/05 00:41:06;;;;;;;4.68;3.30;;;;;;;17.75;40.40;99635.59;4957451;29;20034;-88
2022/04/05 00:43:32;;;;;;;5.13;3.60;;;;;;;17.74;40.42;99641.81;4940709;29;20062;-87
2022/04/05 00:45:57;;;;;;;6.05;3.88;;;;;;;17.73;40.50;99632.19;4957168;29;20082;-87
2022/04/05 00:48:55;;;;;;;4.63;3.15;;;;;;;17.71;40.50;99630.50;4939967;29;20019;-88
2022/04/05 00:51:23;;;;;;;5.82;3.63;;;;;;;17.70;40.45;99625.25;4932890;29;20066;-89
2022/04/05 00:53:51;;;;;;;5.57;3.70;;;;;;;17.71;40.43;99625.22;4939976;29;20038;-88
2022/04/05 00:56:19;;;;;;;5.30;3.55;;;;;;;17.70;40.71;99622.63;4939361;29;20050;-88
2022/04/05 00:58:47;;;;;;;4.82;3.45;;;;;;;17.67;40.52;99618.34;4957048;29;20389;-88
2022/04/05 01:01:16;;;;;;;4.53;3.35;;;;;;;17.66;40.54;99616.63;4940058;29;20027;-88
2022/04/05 01:03:47;;;;;;;5.30;3.20;;;;;;;17.66;40.53;99611.34;4939772;29;20492;-88
2022/04/05 01:06:19;;;;;;;5.50;3.85;;;;;;;17.65;40.62;99612.28;4941278;29;20047;-88
2022/04/05 01:08:46;;;;;;;5.10;3.47;;;;;;;17.65;40.63;99604.38;4940245;29;20098;-88
2022/04/05 01:11:12;;;;;;;4.78;3.28;;;;;;;17.65;40.51;99607.00;4940379;29;20029;-88
2022/04/05 01:13:38;;;;;;;5.82;3.55;;;;;;;17.64;40.60;99602.66;4940588;29;20027;-88
2022/04/05 01:16:04;;;;;;;5.10;3.05;;;;;;;17.65;40.71;99609.66;4940307;29;20126;-88
2022/04/05 01:18:29;;;;;;;5.35;3.60;;;;;;;17.64;40.48;99602.66;4940196;29;20028;-87
2022/04/05 01:20:56;;;;;;;4.40;3.00;;;;;;;17.63;40.69;99597.44;4940304;29;20372;-88
2022/04/05 01:23:23;;;;;;;5.00;3.00;;;;;;;17.63;40.55;99593.00;4940137;29;20031;-87
2022/04/05 01:25:49;;;;;;;4.88;3.35;;;;;;;17.62;40.73;99590.47;4957086;29;20023;-88
2022/04/05 01:28:15;;;;;;;5.15;3.50;;;;;;;17.61;40.84;99589.59;4957363;29;20066;-88
2022/04/05 01:30:41;;;;;;;5.20;3.33;;;;;;;17.61;40.54;99592.22;4940507;29;20023;-87
2022/04/05 01:33:07;;;;;;;5.30;3.83;;;;;;;17.59;40.61;99594.09;4940465;29;20033;-88
2022/04/05 01:35:36;;;;;;;5.28;3.40;;;;;;;17.60;40.57;99589.66;4940342;29;20097;-88
2022/04/05 01:38:03;;;;;;;5.18;3.22;;;;;;;17.57;40.31;99595.91;4940768;29;20031;-88
2022/04/05 01:40:29;;;;;;;5.70;3.63;;;;;;;17.57;40.59;99593.28;4942671;29;20086;-88
2022/04/05 01:42:55;;;;;;;5.50;3.50;;;;;;;17.58;40.60;99592.38;4942527;29;20466;-88
2022/04/05 01:45:21;;;;;;;4.70;3.25;;;;;;;17.57;40.71;99595.91;4941568;29;20035;-88
2022/04/05 01:47:47;;;;;;;5.03;3.08;;;;;;;17.54;40.64;99589.00;4939544;29;20059;-88
2022/04/05 01:50:12;;;;;;;5.03;3.08;;;;;;;17.53;40.51;99578.53;4939354;29;20032;-87
2022/04/05 01:52:39;;;;;;;5.10;3.30;;;;;;;17.53;40.50;99584.66;4941341;29;20047;-88
2022/04/05 01:55:06;;;;;;;5.00;3.20;;;;;;;17.52;40.63;99582.06;4943981;28;20110;-88
2022/04/05 01:57:33;;;;;;;5.10;3.42;;;;;;;17.51;40.52;99583.00;4948366;29;20067;-88
2022/04/05 01:59:58;;;;;;;4.90;3.33;;;;;;;17.51;40.79;99581.22;4949026;29;20488;-88
2022/04/05 02:02:24;;;;;;;5.18;3.40;;;;;;;17.52;40.61;99584.72;4953265;29;20031;-88
2022/04/05 02:04:50;;;;;;;4.30;3.10;;;;;;;17.50;40.54;99578.66;4958999;29;20100;-88
2022/04/05 02:07:20;;;;;;;5.78;3.15;;;;;;;17.52;40.44;99587.34;4956116;29;20106;-88
2022/04/05 02:09:49;;;;;;;4.65;3.45;;;;;;;17.49;40.68;99576.94;4948103;29;20027;-87
2022/04/05 02:12:18;;;;;;;4.15;2.88;;;;;;;17.49;40.61;99579.59;4945984;29;20027;-88
2022/04/05 02:14:44;;;;;;;4.40;3.00;;;;;;;17.47;40.53;99579.66;4946105;29;20372;-88
2022/04/05 02:17:11;;;;;;;4.95;3.25;;;;;;;17.48;40.62;99580.50;4963589;29;20047;-87
2022/04/05 02:19:38;;;;;;;4.78;3.30;;;;;;;17.45;40.55;99566.53;4946527;29;20023;-87
2022/04/05 02:22:04;;;;;;;4.95;3.15;;;;;;;17.44;40.51;99562.16;4945972;29;20065;-88
2022/04/05 02:24:30;;;;;;;4.25;2.97;;;;;;;17.43;40.54;99571.00;4946484;29;20135;-88
2022/04/05 02:26:56;;;;;;;4.35;2.80;;;;;;;17.43;40.62;99568.38;4946392;29;20027;-88
2022/04/05 02:29:21;;;;;;;6.00;3.45;;;;;;;17.43;40.49;99560.47;4947108;29;20023;-87
2022/04/05 02:31:47;;;;;;;4.53;2.90;;;;;;;17.43;40.63;99557.81;4947002;29;20031;-88
2022/04/05 02:34:13;;;;;;;4.90;3.35;;;;;;;17.42;40.57;99557.88;4964439;28;20038;-89
2022/04/05 02:36:38;;;;;;;4.50;2.72;;;;;;;17.41;40.59;99564.97;4964185;29;20036;-88
2022/04/05 02:39:06;;;;;;;5.30;3.30;;;;;;;17.40;40.71;99565.91;4947949;29;20027;-88
2022/04/05 02:41:31;;;;;;;4.13;2.97;;;;;;;17.40;40.47;99563.25;4946821;29;20047;-89
2022/04/05 02:43:58;;;;;;;4.47;3.00;;;;;;;17.39;40.58;99561.50;4943754;29;20031;-87
2022/04/05 02:46:25;;;;;;;5.07;3.28;;;;;;;17.38;40.67;99551.91;4942317;29;20106;-87
2022/04/05 02:48:54;;;;;;;4.40;2.90;;;;;;;17.39;40.32;99552.75;4959050;29;20023;-87
2022/04/05 02:51:21;;;;;;;5.63;3.05;;;;;;;17.36;40.36;99551.13;4942062;29;20417;-87
2022/04/05 02:53:47;;;;;;;4.47;2.92;;;;;;;17.35;40.50;99546.78;4941962;29;20066;-88
2022/04/05 02:56:13;;;;;;;4.60;3.00;;;;;;;17.33;40.38;99551.25;4941414;29;20047;-88
2022/04/05 02:58:40;;;;;;;4.10;2.83;;;;;;;17.33;40.57;99550.41;4941827;29;20401;-87
2022/04/05 03:01:06;;;;;;;4.30;2.83;;;;;;;17.31;40.62;99553.09;4941876;29;20066;-88
2022/04/05 03:03:32;;;;;;;4.72;2.97;;;;;;;17.30;40.69;99546.94;4941683;29;20027;-87
2022/04/05 03:05:58;;;;;;;4.10;2.70;;;;;;;17.29;40.61;99549.69;4958649;29;20024;-88
2022/04/05 03:08:24;;;;;;;4.95;2.67;;;;;;;17.32;40.45;99554.81;4941376;29;20027;-89
2022/04/05 03:10:49;;;;;;;4.80;2.70;;;;;;;17.29;40.39;99560.22;4942224;29;20050;-88
2022/04/05 03:13:15;;;;;;;4.70;3.17;;;;;;;17.28;40.50;99559.38;4942296;29;20520;-88
2022/04/05 03:15:41;;;;;;;4.45;2.95;;;;;;;17.27;40.56;99551.50;4958352;29;20027;-87
2022/04/05 03:18:06;;;;;;;4.63;2.92;;;;;;;17.26;40.44;99555.06;4941667;29;20461;-89
2022/04/05 03:20:32;;;;;;;4.72;2.80;;;;;;;17.26;40.56;99553.31;4941448;29;20037;-87
2022/04/05 03:23:00;;;;;;;4.75;2.90;;;;;;;17.25;40.58;99548.09;4941542;29;20089;-87
2022/04/05 03:25:26;;;;;;;4.57;2.80;;;;;;;17.24;40.63;99551.66;4941437;29;20445;-87
2022/04/05 03:27:53;;;;;;;4.95;2.97;;;;;;;17.24;40.47;99546.38;4959870;29;20082;-87
2022/04/05 03:30:20;;;;;;;4.30;2.70;;;;;;;17.23;40.49;99544.69;4941170;29;20027;-89
2022/04/05 03:32:47;;;;;;;3.90;2.60;;;;;;;17.22;40.57;99542.94;4940941;29;20027;-88
2022/04/05 03:35:12;;;;;;;4.70;2.90;;;;;;;17.22;40.44;99545.56;4941096;29;20034;-87
2022/04/05 03:37:38;;;;;;;4.68;2.70;;;;;;;17.21;40.62;99535.97;4958067;29;20031;-87
2022/04/05 03:40:05;;;;;;;4.28;2.92;;;;;;;17.21;40.55;99535.97;4941143;29;20050;-88
2022/04/05 03:42:30;;;;;;;4.93;2.95;;;;;;;17.18;40.44;99532.53;4960177;29;20031;-87
2022/04/05 03:44:56;;;;;;;4.15;2.83;;;;;;;17.18;40.62;99529.91;4941903;29;20357;-88
2022/04/05 03:47:23;;;;;;;4.40;2.92;;;;;;;17.17;40.63;99528.19;4941951;29;20453;-88
2022/04/05 03:49:49;;;;;;;5.07;3.03;;;;;;;17.17;40.69;99536.09;4941952;29;20027;-88
2022/04/05 03:52:15;;;;;;;4.40;2.97;;;;;;;17.16;40.57;99523.81;4941745;29;20023;-89
2022/04/05 03:54:40;;;;;;;3.72;2.45;;;;;;;17.14;40.51;99523.03;4941681;29;20489;-88
2022/04/05 03:57:06;;;;;;;3.95;2.75;;;;;;;17.15;40.48;99521.28;4942119;29;20062;-88
2022/04/05 03:59:31;;;;;;;4.85;3.17;;;;;;;17.15;40.46;99519.47;4942062;29;20027;-88
2022/04/05 04:01:57;;;;;;;4.15;2.70;;;;;;;17.14;40.65;99524.84;4942103;29;20027;-88
2022/04/05 04:04:23;;;;;;;3.65;2.33;;;;;;;17.11;40.60;99520.56;4941944;29;20121;-88
2022/04/05 04:06:49;;;;;;;4.78;2.63;;;;;;;17.12;40.59;99519.63;4942218;29;20130;-88
2022/04/05 04:09:14;;;;;;;4.20;2.53;;;;;;;17.12;40.36;99527.53;4942078;29;20038;-87
2022/04/05 04:11:40;;;;;;;4.72;2.75;;;;;;;17.11;40.57;99531.09;4942064;29;20066;-88
2022/04/05 04:14:07;;;;;;;3.92;2.50;;;;;;;17.10;40.68;99524.09;4943532;29;20098;-87
2022/04/05 04:16:33;;;;;;;4.28;2.70;;;;;;;17.09;40.40;99529.47;4944390;29;20037;-88
2022/04/05 04:18:59;;;;;;;4.28;2.50;;;;;;;17.08;40.51;99523.31;4943736;29;20027;-87
2022/04/05 04:21:24;;;;;;;5.25;2.63;;;;;;;17.08;40.58;99523.31;4961471;29;20037;-87
2022/04/05 04:23:50;;;;;;;3.80;2.40;;;;;;;17.08;40.52;99520.69;4944578;29;20023;-87
2022/04/05 04:26:15;;;;;;;5.07;2.85;;;;;;;17.09;40.37;99516.28;4945581;29;20015;-87
2022/04/05 04:28:41;;;;;;;3.97;2.63;;;;;;;17.07;40.42;99511.06;4943482;29;20481;-88
2022/04/05 04:31:06;;;;;;;4.18;2.42;;;;;;;17.07;40.55;99518.97;4941529;29;20369;-88
2022/04/05 04:33:32;;;;;;;4.07;2.53;;;;;;;17.06;40.43;99514.63;4966653;29;20086;-88
2022/04/05 04:35:58;;;;;;;4.25;2.60;;;;;;;17.04;40.43;99514.69;4958300;29;20075;-88
2022/04/05 04:38:24;;;;;;;3.65;2.42;;;;;;;17.03;40.45;99517.38;4953232;29;20039;-87
2022/04/05 04:40:52;;;;;;;4.03;2.35;;;;;;;17.02;40.50;99516.53;4944589;29;20469;-88
2022/04/05 04:43:19;;;;;;;4.57;2.60;;;;;;;17.00;40.68;99513.06;4941908;29;20023;-88
2022/04/05 04:45:45;;;;;;;4.32;2.50;;;;;;;17.00;40.36;99522.78;4963090;29;20047;-88
2022/04/05 04:48:12;;;;;;;4.60;2.78;;;;;;;17.00;40.32;99512.22;4944830;29;20034;-88
2022/04/05 04:50:38;;;;;;;4.30;2.85;;;;;;;17.00;40.35;99512.22;4962167;28;20046;-87
2022/04/05 04:53:04;;;;;;;4.25;2.45;;;;;;;16.97;40.57;99505.31;4961827;29;20468;-88
2022/04/05 04:55:30;;;;;;;3.67;2.33;;;;;;;16.96;40.55;99506.22;4945237;29;20062;-88
2022/04/05 04:57:56;;;;;;;4.57;2.60;;;;;;;16.97;40.34;99514.97;4946259;29;20130;-88
2022/04/05 05:00:21;;;;;;;4.65;2.35;;;;;;;16.97;40.54;99517.63;4946761;29;20504;-88
2022/04/05 05:02:48;;;;;;;4.57;2.70;;;;;;;16.96;40.35;99510.63;4947636;29;20031;-88
2022/04/05 05:05:21;;;;;;;4.22;2.65;;;;;;;16.95;40.38;99516.84;4964161;29;20066;-89
2022/04/05 05:07:48;;;;;;;3.85;2.50;;;;;;;16.93;40.39;99511.63;4948554;29;20365;-89
2022/04/05 05:10:15;;;;;;;4.47;2.53;;;;;;;16.89;40.39;99508.28;4947346;29;20500;-89
2022/04/05 05:12:41;;;;;;;3.95;2.70;;;;;;;16.90;40.48;99512.63;4946850;29;20150;-87
2022/04/05 05:15:14;;;;;;;4.07;2.40;;;;;;;16.91;40.45;99518.75;4943755;29;20465;-88
2022/04/05 05:17:39;;;;;;;4.40;2.70;;;;;;;16.90;40.42;99512.63;4942398;29;20114;-88
2022/04/05 05:20:06;;;;;;;3.63;2.20;;;;;;;16.89;40.34;99515.31;4939737;29;20119;-88
2022/04/05 05:22:32;;;;;;;4.63;2.58;;;;;;;16.88;40.42;99514.47;4939651;29;20038;-87
2022/04/05 05:24:57;;;;;;;3.97;2.53;;;;;;;16.86;40.53;99511.03;4939968;29;20019;-87
2022/04/05 05:27:23;;;;;;;4.70;2.50;;;;;;;16.86;40.32;99518.09;4957157;29;20051;-88
2022/04/05 05:29:49;;;;;;;4.05;2.35;;;;;;;16.85;40.46;99517.22;4941176;29;20070;-88
2022/04/05 05:32:14;;;;;;;4.07;2.42;;;;;;;16.85;40.49;99529.56;4943095;29;20421;-88
2022/04/05 05:34:40;;;;;;;3.70;2.40;;;;;;;16.82;40.43;99525.28;4943327;29;20478;-88
2022/04/05 05:37:08;;;;;;;4.25;2.63;;;;;;;16.84;40.58;99533.97;4943531;29;20027;-89
2022/04/05 05:39:35;;;;;;;3.65;2.40;;;;;;;16.83;40.38;99534.03;4960649;29;20430;-89
2022/04/05 05:42:06;;;;;;;3.38;2.20;;;;;;;16.83;40.50;99536.66;4961291;29;20027;-89
2022/04/05 05:44:33;;;;;;;3.85;2.38;;;;;;;16.83;40.65;99542.78;4943532;29;20098;-89
2022/04/05 05:46:59;;;;;;;3.55;2.45;;;;;;;16.80;40.51;99550.81;4944219;29;20065;-89
2022/04/05 05:49:25;;;;;;;4.35;2.33;;;;;;;16.80;40.67;99550.81;4945658;29;20026;-89
2022/04/05 05:51:51;;;;;;;3.38;2.38;;;;;;;16.78;40.53;99550.91;4943147;29;20043;-89
2022/04/05 05:54:17;;;;;;;3.90;2.30;;;;;;;16.80;40.59;99552.63;4943162;29;20429;-88
2022/04/05 05:56:43;;;;;;;3.72;2.00;;;;;;;16.78;40.64;99558.81;4942721;29;20035;-88
2022/04/05 05:59:09;;;;;;;4.53;2.50;;;;;;;16.79;40.35;99557.00;4943354;29;20035;-88
2022/04/05 06:01:38;;;;;;;3.65;2.35;;;;;;;16.79;40.44;99567.56;4943537;29;20342;-88
2022/04/05 06:04:04;;;;;;;5.10;2.65;;;;;;;16.77;40.48;99561.50;4943649;28;20095;-89
2022/04/05 06:06:30;;;;;;;3.72;2.40;;;;;;;16.77;40.58;99564.13;4960013;29;20110;-89
2022/04/05 06:08:56;;;;;;;3.70;2.15;;;;;;;16.77;40.60;99564.13;4943257;29;20030;-88
2022/04/05 06:11:22;;;;;;;3.85;2.40;;;;;;;16.73;40.40;99563.41;4943046;29;20027;-89
2022/04/05 06:13:52;;;;;;;4.47;2.78;;;;;;;16.75;40.41;99560.69;4942937;29;20030;-88
2022/04/05 06:16:20;;;;;;;4.07;2.53;;;;;;;16.74;40.33;99569.53;4942771;29;20043;-87
2022/04/05 06:18:47;;;;;;;3.88;2.17;;;;;;;16.76;40.40;99573.81;4943360;28;20110;-88
2022/04/05 06:21:19;;;;;;;3.55;2.15;;;;;;;16.73;40.53;99566.03;4944165;29;20027;-87
2022/04/05 06:23:45;;;;;;;3.50;2.30;;;;;;;16.73;40.63;99573.09;4943705;29;20031;-89
2022/04/05 06:26:11;;;;;;;4.53;2.60;;;;;;;16.73;40.57;99575.72;4943941;29;20023;-87
2022/04/05 06:28:37;;;;;;;3.75;2.30;;;;;;;16.74;40.57;99580.06;4944417;29;20049;-88
2022/04/05 06:31:03;;;;;;;3.95;2.47;;;;;;;16.73;40.45;99573.09;4944064;29;20090;-85
2022/04/05 06:33:29;;;;;;;4.13;2.50;;;;;;;16.72;40.25;99582.78;4960790;29;20417;-87
2022/04/05 06:35:56;;;;;;;3.75;2.20;;;;;;;16.73;40.60;99575.72;4945243;29;20055;-87
2022/04/05 06:38:23;;;;;;;4.60;2.78;;;;;;;16.75;40.44;99579.13;4944111;29;20035;-86
2022/04/05 06:40:48;;;;;;;4.07;2.40;;;;;;;16.74;40.50;99580.94;4943495;29;20023;-85
2022/04/05 06:43:15;;;;;;;3.95;2.35;;;;;;;16.73;40.39;99581.00;4944185;29;20032;-86
2022/04/05 06:45:42;;;;;;;3.97;2.28;;;;;;;16.73;40.56;99581.00;4944941;29;20023;-87
2022/04/05 06:48:09;;;;;;;4.30;2.30;;;;;;;16.72;40.46;99581.91;4961652;29;20047;-86
2022/04/05 06:50:36;;;;;;;4.43;2.78;;;;;;;16.75;40.48;99587.03;4946743;29;20044;-87
2022/04/05 06:53:03;;;;;;;3.70;2.38;;;;;;;16.73;40.52;99573.09;4946677;29;20118;-87
2022/04/05 06:55:29;;;;;;;4.63;2.60;;;;;;;16.72;40.42;99580.16;4946882;29;20378;-86
2022/04/05 06:57:55;;;;;;;4.20;2.63;;;;;;;16.74;40.29;99580.94;4948171;29;20046;-86
2022/04/05 07:00:23;;;;;;;4.40;2.17;;;;;;;16.73;40.30;99581.84;4952194;28;20051;-86
2022/04/05 07:02:50;;;;;;;3.97;2.55;;;;;;;16.73;40.40;99578.34;4958767;29;20067;-86
2022/04/05 07:05:15;;;;;;;4.00;2.45;;;;;;;16.73;40.18;99583.63;4946551;29;20027;-87
2022/04/05 07:08:27;;;;;;;4.45;2.38;;;;;;;16.73;40.35;99583.63;4961333;28;20042;-85
2022/04/05 07:10:53;;;;;;;4.35;2.50;;;;;;;16.71;40.36;99588.09;4942260;29;20039;-86
2022/04/05 07:13:18;;;;;;;4.38;2.55;;;;;;;16.72;40.48;99587.19;4941561;29;20035;-85
2022/04/05 07:15:44;;;;;;;3.85;2.50;;;;;;;16.75;40.39;99589.69;4941384;29;20062;-87
2022/04/05 07:18:09;;;;;;;4.63;2.60;;;;;;;16.73;40.34;99588.88;4941500;29;20097;-86
2022/04/05 07:20:35;;;;;;;5.10;2.97;;;;;;;16.75;40.45;99589.69;4942019;29;20023;-85
2022/04/05 07:23:01;;;;;;;4.22;2.58;;;;;;;16.76;40.37;99594.06;4947267;29;20026;-86
2022/04/05 07:25:26;;;;;;;4.30;2.55;;;;;;;16.74;40.41;99590.59;4946715;29;20373;-86
2022/04/05 07:27:52;;;;;;;3.83;2.33;;;;;;;16.76;40.32;99594.06;4947198;29;20043;-86
2022/04/05 07:30:19;;;;;;;4.30;2.35;;;;;;;16.77;40.29;99595.75;4964419;29;20027;-86
2022/04/05 07:32:45;;;;;;;5.20;2.55;;;;;;;16.77;40.23;99586.06;4947904;29;20062;-86
2022/04/05 07:35:17;;;;;;;3.92;2.40;;;;;;;16.77;40.17;99586.06;4948605;29;20373;-86
2022/04/05 07:37:43;;;;;;;5.00;2.63;;;;;;;16.77;40.31;99591.31;4948433;29;20027;-86
2022/04/05 07:40:10;;;;;;;4.63;2.53;;;;;;;16.79;39.91;99586.00;4949329;29;20035;-86
2022/04/05 07:42:37;;;;;;;5.57;3.10;;;;;;;16.79;40.11;99591.28;4949197;29;20065;-86
2022/04/05 07:45:04;;;;;;;4.22;2.80;;;;;;;16.80;40.44;99590.34;4947536;29;20027;-85
2022/04/05 07:47:30;;;;;;;5.05;3.05;;;;;;;16.82;40.23;99599.06;4958308;29;20401;-86
2022/04/05 07:49:55;;;;;;;4.38;2.35;;;;;;;16.81;40.11;99597.34;4941198;29;20051;-85
2022/04/05 07:52:21;;;;;;;5.35;2.83;;;;;;;16.83;40.26;99594.63;4940862;29;20193;-85
2022/04/05 07:54:47;;;;;;;4.30;2.42;;;;;;;16.83;40.22;99590.22;4940667;28;20046;-86
2022/04/05 07:57:13;;;;;;;4.55;2.60;;;;;;;16.83;40.17;99599.91;4941021;29;20038;-85
2022/04/05 07:59:40;;;;;;;4.82;2.88;;;;;;;16.86;40.01;99602.44;4940974;29;20089;-85
2022/04/05 08:02:05;;;;;;;5.03;2.78;;;;;;;16.88;39.95;99598.81;4940925;29;20035;-85
2022/04/05 08:04:31;;;;;;;4.72;2.85;;;;;;;16.88;40.04;99598.81;4940744;29;20106;-86
2022/04/05 08:06:56;;;;;;;5.53;2.65;;;;;;;16.90;40.05;99602.22;4957943;29;20107;-85
2022/04/05 08:09:22;;;;;;;5.68;3.50;;;;;;;16.90;39.89;99599.59;4940465;29;20046;-86
2022/04/05 08:11:48;;;;;;;5.47;3.38;;;;;;;16.92;40.16;99600.38;4957556;29;20042;-86
2022/04/05 08:14:14;;;;;;;4.25;2.70;;;;;;;16.92;40.16;99600.38;4941081;29;20035;-86
2022/04/05 08:16:40;;;;;;;5.65;3.35;;;;;;;16.95;40.15;99598.56;4940720;29;20023;-85
2022/04/05 08:19:06;;;;;;;4.47;2.90;;;;;;;16.95;39.82;99598.56;4940547;29;20377;-85
2022/04/05 08:21:33;;;;;;;4.88;2.95;;;;;;;16.97;40.05;99599.34;4940523;29;20147;-85
2022/04/05 08:23:58;;;;;;;4.60;2.72;;;;;;;16.97;39.96;99604.59;4941867;28;20442;-86
2022/04/05 08:26:24;;;;;;;5.43;2.97;;;;;;;16.98;39.93;99604.56;4957947;28;20059;-86
2022/04/05 08:28:50;;;;;;;3.92;2.60;;;;;;;17.00;39.97;99601.84;4941220;29;20098;-86
2022/04/05 08:31:18;;;;;;;4.68;2.50;;;;;;;17.02;39.89;99602.63;4940967;29;20027;-86
2022/04/05 08:33:44;;;;;;;4.10;2.30;;;;;;;17.03;39.76;99599.09;4940044;29;20093;-86
2022/04/05 08:36:10;;;;;;;4.63;2.55;;;;;;;17.03;39.82;99601.75;4940320;29;20067;-85
2022/04/05 08:38:35;;;;;;;3.72;2.42;;;;;;;17.04;39.88;99604.31;4940256;29;20054;-87
2022/04/05 08:41:03;;;;;;;4.57;2.30;;;;;;;17.05;39.88;99599.91;4940242;29;20047;-85
2022/04/05 08:43:29;;;;;;;4.63;2.90;;;;;;;17.06;39.73;99596.34;4940206;29;20034;-85
2022/04/05 08:46:00;;;;;;;4.95;2.75;;;;;;;17.07;40.02;99598.06;4940149;29;20027;-85
2022/04/05 08:48:28;;;;;;;4.93;2.80;;;;;;;17.07;39.80;99598.06;4939822;29;20042;-85
2022/04/05 08:50:55;;;;;;;7.57;4.28;;;;;;;17.09;39.92;99595.38;4940111;29;20174;-85
2022/04/05 08:53:20;;;;;;;4.28;2.38;;;;;;;17.09;39.97;99595.38;4956918;29;20031;-86
2022/04/05 08:55:46;;;;;;;4.53;2.58;;;;;;;17.08;39.76;99599.78;4941986;29;20058;-86
2022/04/05 08:58:14;;;;;;;4.35;2.80;;;;;;;17.08;39.97;99594.50;4941513;29;20023;-86
2022/04/05 09:00:41;;;;;;;4.40;2.85;;;;;;;17.09;39.78;99590.94;4958103;29;20031;-86
2022/04/05 09:03:07;;;;;;;5.25;2.92;;;;;;;17.11;39.81;99594.38;4942798;29;20031;-87
2022/04/05 09:05:35;;;;;;;5.10;2.90;;;;;;;17.12;39.86;99589.94;4944890;29;20038;-86
2022/04/05 09:08:22;;;;;;;5.22;3.20;;;;;;;17.13;39.93;99592.53;4946121;29;20068;-87
2022/04/05 09:11:03;;;;;;;4.50;2.58;;;;;;;17.14;39.70;99585.50;4963533;28;20043;-85
2022/04/05 09:13:28;;;;;;;4.80;3.00;;;;;;;17.15;39.99;99590.66;4963570;29;20031;-86
2022/04/05 09:15:58;;;;;;;6.03;3.38;;;;;;;17.17;39.91;99588.84;4946885;29;20119;-86
2022/04/05 09:18:38;;;;;;;5.75;3.80;;;;;;;17.19;39.74;99588.75;4964499;29;20446;-86
2022/04/05 09:21:09;;;;;;;5.50;3.28;;;;;;;17.21;39.76;99596.59;4946534;29;20524;-86
2022/04/05 09:23:39;;;;;;;6.07;3.05;;;;;;;17.21;39.66;99593.97;4963840;29;20031;-86
2022/04/05 09:26:13;;;;;;;5.35;3.42;;;;;;;17.23;39.52;99600.06;4949434;29;20374;-86
2022/04/05 09:28:50;;;;;;;5.53;3.08;;;;;;;17.24;39.80;99594.69;4949645;28;20031;-86
2022/04/05 09:31:18;;;;;;;4.97;3.05;;;;;;;17.25;39.76;99593.75;4967122;29;20031;-85
2022/04/05 09:34:12;;;;;;;5.03;2.72;;;;;;;17.27;39.65;99586.66;4952898;29;20027;-86
2022/04/05 09:36:46;;;;;;;5.53;3.13;;;;;;;17.28;39.77;99591.00;4949342;29;20066;-85
2022/04/05 09:39:15;;;;;;;5.13;3.40;;;;;;;17.30;39.82;99585.69;4967143;29;20035;-86
2022/04/05 09:41:40;;;;;;;5.43;3.25;;;;;;;17.31;39.58;99585.63;4951265;29;20099;-86
2022/04/05 09:44:06;;;;;;;5.47;3.83;;;;;;;17.32;39.59;99589.09;4971940;29;20046;-86
2022/04/05 09:46:33;;;;;;;5.40;3.55;;;;;;;17.34;39.62;99583.75;4950254;29;20027;-86
2022/04/05 09:49:01;;;;;;;5.72;3.10;;;;;;;17.36;39.73;99584.53;4946643;29;20115;-86
2022/04/05 09:51:27;;;;;;;5.22;2.97;;;;;;;17.36;39.59;99585.41;4944341;29;20122;-86
2022/04/05 09:53:57;;;;;;;4.97;3.10;;;;;;;17.37;39.59;99584.47;4959808;29;20110;-86
2022/04/05 09:56:24;;;;;;;5.82;3.53;;;;;;;17.39;39.56;99581.78;4944411;29;20082;-86
2022/04/05 09:58:51;;;;;;;5.90;3.40;;;;;;;17.40;39.64;99578.22;4948417;29;20030;-87
2022/04/05 10:01:18;;;;;;;6.20;2.95;;;;;;;17.41;39.64;99578.16;4949907;29;20031;-85
2022/04/05 10:04:06;;;;;;;4.68;2.97;;;;;;;17.43;39.56;99576.28;4950455;29;20065;-85
2022/04/05 10:06:33;;;;;;;5.30;3.08;;;;;;;17.43;39.58;99557.81;4950381;29;20047;-87
2022/04/05 10:09:02;;;;;;;4.38;2.67;;;;;;;17.44;39.68;99559.53;4967879;29;20027;-86
2022/04/05 10:11:31;;;;;;;4.90;3.03;;;;;;;17.45;39.66;99560.41;4967279;29;20032;-86
2022/04/05 10:13:58;;;;;;;4.07;2.75;;;;;;;17.47;39.67;99557.72;4950752;29;20031;-86
2022/04/05 10:16:25;;;;;;;4.75;2.95;;;;;;;17.47;39.66;99550.63;4964684;28;20028;-86
2022/04/05 10:18:56;;;;;;;4.80;2.70;;;;;;;17.50;39.75;99552.28;4944702;29;20532;-86
2022/04/05 10:21:21;;;;;;;6.47;3.22;;;;;;;17.51;39.73;99548.72;4943776;29;20453;-85
2022/04/05 10:23:48;;;;;;;5.20;3.25;;;;;;;17.51;39.71;99544.28;4943869;29;20035;-85
2022/04/05 10:26:16;;;;;;;5.60;2.88;;;;;;;17.52;39.72;99550.41;4943587;29;20027;-86
2022/04/05 10:28:45;;;;;;;5.35;3.33;;;;;;;17.52;39.60;99543.38;4963489;29;20030;-85
2022/04/05 10:31:20;;;;;;;5.43;3.33;;;;;;;17.55;39.61;99539.75;4960904;29;20031;-85
2022/04/05 10:34:09;;;;;;;5.78;3.20;;;;;;;17.56;39.72;99528.25;4944464;29;20090;-86
2022/04/05 10:36:34;;;;;;;4.85;2.80;;;;;;;17.57;39.36;99533.47;4961066;28;20453;-86
2022/04/05 10:39:17;;;;;;;5.10;2.97;;;;;;;17.58;39.68;99529.91;4960545;29;20114;-86
2022/04/05 10:42:04;;;;;;;5.30;3.38;;;;;;;17.60;39.40;99526.31;4961383;29;20114;-85
2022/04/05 10:44:30;;;;;;;5.10;3.08;;;;;;;17.62;39.37;99530.59;4944478;29;20373;-86
2022/04/05 10:47:01;;;;;;;5.15;3.20;;;;;;;17.62;39.52;99525.31;4944240;29;20031;-85
2022/04/05 10:49:39;;;;;;;4.50;2.88;;;;;;;17.62;39.44;99520.06;4960531;29;20031;-85
2022/04/05 10:52:12;;;;;;;3.92;2.45;;;;;;;17.64;39.65;99520.84;4943230;29;20113;-85
2022/04/05 10:54:46;;;;;;;4.22;2.47;;;;;;;17.65;39.32;99519.94;4942857;29;20372;-85
2022/04/05 10:57:32;;;;;;;4.47;2.47;;;;;;;17.67;39.47;99515.41;4944312;29;20042;-86
2022/04/05 11:00:21;;;;;;;4.05;2.40;;;;;;;17.67;39.36;99511.94;4945119;29;20350;-86
2022/04/05 11:02:53;;;;;;;5.43;2.55;;;;;;;17.69;39.46;99505.63;4942975;29;20105;-86
2022/04/05 11:05:19;;;;;;;5.32;3.03;;;;;;;17.71;39.27;99500.31;4960094;29;20102;-86
2022/04/05 11:07:54;;;;;;;4.97;2.55;;;;;;;17.71;39.55;99510.84;4943270;29;20038;-85
2022/04/05 11:10:39;;;;;;;5.63;2.70;;;;;;;17.73;39.59;99505.50;4943235;29;20101;-86
2022/04/05 11:13:05;;;;;;;4.78;2.85;;;;;;;17.74;39.57;99502.81;4940949;29;20409;-86
2022/04/05 11:15:42;;;;;;;5.47;2.70;;;;;;;17.75;39.39;99503.66;4942253;29;20023;-86
2022/04/05 11:18:25;;;;;;;5.47;2.72;;;;;;;17.77;39.26;99496.53;4942218;29;20031;-85
2022/04/05 11:20:54;;;;;;;4.90;2.72;;;;;;;17.76;39.49;99498.31;4941509;29;20370;-85
2022/04/05 11:23:37;;;;;;;5.03;2.85;;;;;;;17.78;39.29;99498.25;4959358;29;20357;-87
2022/04/05 11:26:22;;;;;;;4.13;2.40;;;;;;;17.79;39.39;99490.25;4959200;29;20024;-86
2022/04/05 11:28:47;;;;;;;4.00;2.22;;;;;;;17.81;39.49;99488.38;4941084;29;20031;-86
2022/04/05 11:31:30;;;;;;;5.80;2.97;;;;;;;17.83;39.43;99480.41;4942039;29;20058;-85
2022/04/05 11:33:56;;;;;;;5.78;2.60;;;;;;;17.83;39.21;99477.75;4943067;29;20094;-86
2022/04/05 11:36:23;;;;;;;4.90;2.60;;;;;;;17.84;39.45;99476.84;4961828;28;20031;-85
2022/04/05 11:38:56;;;;;;;5.65;2.90;;;;;;;17.85;39.32;99467.97;4943390;29;20035;-85